Time;durP1;ratioP1;P1;durP2;ratioP2;P2;SDS_P1;SDS_P2;PMS_P1;PMS_P2;Temp;Humidity;BMP_temperature;BMP_pressure;BME280_temperature;BME280_humidity;BME280_pressure;Samples;Min_cycle;Max_cycle;Signal;HPM_P1;HPM_P2
2022/06/28 00:00:27;;;;;;;28.08;19.40;;;;;;;;;;4995135;28;20026;-61
2022/06/28 00:02:53;;;;;;;30.98;20.33;;;;;;;;;;4995048;28;20570;-58
2022/06/28 00:05:19;;;;;;;28.10;20.50;;;;;;;;;;4995075;28;20046;-60
2022/06/28 00:07:45;;;;;;;30.77;21.58;;;;;;;;;;4994481;28;20022;-60
2022/06/28 00:10:12;;;;;;;29.75;20.85;;;;;;;;;;4994862;28;20026;-61
2022/06/28 00:12:38;;;;;;;35.78;22.42;;;;;;;;;;4994894;28;20080;-60
2022/06/28 00:17:50;;;;;;;33.20;22.48;;;;;;;;;;4994559;28;20112;-59
2022/06/28 00:20:16;;;;;;;30.63;21.52;;;;;;;;;;4977081;28;20503;-60
2022/06/28 00:22:42;;;;;;;29.88;22.65;;;;;;;;;;4994831;28;20026;-60
2022/06/28 00:25:08;;;;;;;30.52;21.10;;;;;;;;;;4994706;28;20479;-60
2022/06/28 00:27:34;;;;;;;28.92;22.10;;;;;;;;;;4993826;28;20026;-60
2022/06/28 00:30:00;;;;;;;31.67;22.83;;;;;;;;;;4994485;28;20040;-60
2022/06/28 00:32:28;;;;;;;31.35;22.55;;;;;;;;;;4994436;28;20033;-60
2022/06/28 00:34:54;;;;;;;31.63;22.95;;;;;;;;;;4994563;28;20030;-60
2022/06/28 00:37:20;;;;;;;33.67;24.55;;;;;;;;;;4993853;28;20022;-60
2022/06/28 00:39:46;;;;;;;34.05;23.15;;;;;;;;;;4977131;28;20501;-61
2022/06/28 00:42:12;;;;;;;35.63;24.40;;;;;;;;;;4994419;28;20029;-60
2022/06/28 00:44:38;;;;;;;32.28;23.42;;;;;;;;;;4994490;28;20034;-59
2022/06/28 00:47:04;;;;;;;32.13;22.98;;;;;;;;;;4994210;28;20014;-60
2022/06/28 00:49:31;;;;;;;36.55;22.92;;;;;;;;;;4994304;28;20031;-61
2022/06/28 00:52:02;;;;;;;33.53;23.88;;;;;;;;;;4994688;28;20029;-60
2022/06/28 00:54:29;;;;;;;34.22;24.08;;;;;;;;;;4994313;28;20030;-61
2022/06/28 00:56:55;;;;;;;34.88;23.42;;;;;;;;;;4994149;28;20033;-61
2022/06/28 00:59:21;;;;;;;33.47;24.55;;;;;;;;;;4993448;28;20042;-61
2022/06/28 01:01:47;;;;;;;33.47;25.05;;;;;;;;;;4994315;28;20399;-60
2022/06/28 01:04:13;;;;;;;37.72;26.02;;;;;;;;;;4994000;28;20033;-61
2022/06/28 01:06:39;;;;;;;41.60;27.30;;;;;;;;;;4994525;28;20493;-61
2022/06/28 01:09:05;;;;;;;34.60;26.25;;;;;;;;;;4993396;28;20395;-61
2022/06/28 01:11:32;;;;;;;34.75;25.55;;;;;;;;;;4993890;28;20022;-60
2022/06/28 01:13:59;;;;;;;36.40;26.15;;;;;;;;;;4976204;28;20034;-60
2022/06/28 01:16:25;;;;;;;37.65;24.98;;;;;;;;;;4976345;28;20026;-61
2022/06/28 01:18:51;;;;;;;32.42;24.95;;;;;;;;;;4975433;28;20192;-59
2022/06/28 01:21:17;;;;;;;34.05;26.42;;;;;;;;;;4993713;28;20026;-61
2022/06/28 01:23:47;;;;;;;36.08;26.55;;;;;;;;;;4993523;28;20471;-61
2022/06/28 01:26:14;;;;;;;34.80;25.88;;;;;;;;;;4993553;28;20031;-60
2022/06/28 01:28:41;;;;;;;32.60;25.30;;;;;;;;;;5008914;23;20070;-62
2022/06/28 01:31:07;;;;;;;39.47;25.98;;;;;;;;;;5030200;28;20136;-63
2022/06/28 01:33:36;;;;;;;33.88;24.98;;;;;;;;;;5031599;28;20021;-63
2022/06/28 01:36:02;;;;;;;37.22;24.92;;;;;;;;;;5030057;28;20036;-63
2022/06/28 01:38:28;;;;;;;36.88;27.25;;;;;;;;;;5030494;28;20102;-61
2022/06/28 01:40:55;;;;;;;38.92;25.25;;;;;;;;;;5031416;28;20473;-62
2022/06/28 01:43:21;;;;;;;33.50;25.23;;;;;;;;;;5031357;28;20561;-63
2022/06/28 01:45:48;;;;;;;41.05;26.85;;;;;;;;;;5031273;28;20025;-63
2022/06/28 01:48:17;;;;;;;35.20;25.45;;;;;;;;;;5030323;28;20568;-64
2022/06/28 01:50:44;;;;;;;35.97;26.55;;;;;;;;;;5031003;28;20056;-61
2022/06/28 01:53:10;;;;;;;35.80;25.77;;;;;;;;;;5031325;28;20401;-61
2022/06/28 01:55:36;;;;;;;33.60;24.25;;;;;;;;;;5031084;28;20033;-63
2022/06/28 01:58:02;;;;;;;36.10;25.75;;;;;;;;;;5030280;28;20025;-63
2022/06/28 02:00:29;;;;;;;35.72;26.73;;;;;;;;;;5030880;28;20061;-63
2022/06/28 02:02:55;;;;;;;39.88;26.58;;;;;;;;;;5031203;28;20037;-63
2022/06/28 02:05:21;;;;;;;35.10;25.98;;;;;;;;;;5031037;28;20028;-63
2022/06/28 02:07:48;;;;;;;39.45;26.75;;;;;;;;;;5029809;28;20021;-63
2022/06/28 02:10:14;;;;;;;36.72;26.90;;;;;;;;;;5030622;28;20375;-63
2022/06/28 02:12:40;;;;;;;36.13;27.52;;;;;;;;;;5030798;28;20076;-64
2022/06/28 02:15:06;;;;;;;40.00;28.73;;;;;;;;;;5030769;28;20050;-63
2022/06/28 02:17:32;;;;;;;40.60;28.17;;;;;;;;;;5030101;28;20029;-62
2022/06/28 02:19:58;;;;;;;39.15;30.83;;;;;;;;;;5030576;28;20033;-61
2022/06/28 02:22:24;;;;;;;41.47;30.13;;;;;;;;;;5030586;28;20080;-61
2022/06/28 02:24:51;;;;;;;39.60;30.80;;;;;;;;;;5030591;28;20033;-61
2022/06/28 02:27:17;;;;;;;44.95;31.33;;;;;;;;;;5030227;28;20097;-60
2022/06/28 02:29:43;;;;;;;40.42;30.25;;;;;;;;;;5012787;28;20047;-60
2022/06/28 02:32:10;;;;;;;47.95;32.50;;;;;;;;;;5012979;28;20025;-60
2022/06/28 02:40:24;;;;;;;47.65;34.17;;;;;;;;;;5030690;28;20075;-60
2022/06/28 02:42:57;;;;;;;45.83;33.25;;;;;;;;;;5030425;28;20068;-63
2022/06/28 02:45:25;;;;;;;52.08;35.00;;;;;;;;;;5030484;28;20026;-61
2022/06/28 02:47:51;;;;;;;47.75;33.20;;;;;;;;;;5029639;28;20018;-61
2022/06/28 02:50:17;;;;;;;51.50;36.65;;;;;;;;;;5030514;28;20424;-62
2022/06/28 02:52:43;;;;;;;46.83;34.70;;;;;;;;;;5030469;28;20025;-62
2022/06/28 02:55:10;;;;;;;49.75;33.65;;;;;;;;;;5030503;28;20025;-62
2022/06/28 02:57:39;;;;;;;50.85;35.42;;;;;;;;;;5029369;28;20034;-61
2022/06/28 03:00:07;;;;;;;56.33;35.75;;;;;;;;;;5030216;28;20029;-63
2022/06/28 03:02:35;;;;;;;47.90;33.55;;;;;;;;;;5012749;28;20028;-61
2022/06/28 03:05:02;;;;;;;54.92;36.50;;;;;;;;;;5030375;28;20430;-62
2022/06/28 03:07:28;;;;;;;50.00;35.22;;;;;;;;;;5029592;28;20029;-61
2022/06/28 03:09:54;;;;;;;50.75;37.67;;;;;;;;;;5029078;28;20124;-61
2022/06/28 03:12:20;;;;;;;52.15;37.20;;;;;;;;;;5030177;28;20477;-62
2022/06/28 03:14:46;;;;;;;51.10;35.70;;;;;;;;;;5030185;28;20057;-62
2022/06/28 03:17:12;;;;;;;52.53;36.90;;;;;;;;;;5029737;28;20032;-61
2022/06/28 03:19:38;;;;;;;51.58;36.88;;;;;;;;;;5012275;28;20029;-62
2022/06/28 03:22:04;;;;;;;49.40;35.63;;;;;;;;;;5033594;28;20112;-62
2022/06/28 03:24:30;;;;;;;50.05;33.80;;;;;;;;;;5033935;28;20025;-63
2022/06/28 03:26:56;;;;;;;48.72;34.40;;;;;;;;;;5033701;28;20087;-62
2022/06/28 03:29:22;;;;;;;46.15;32.50;;;;;;;;;;5033107;28;20124;-62
2022/06/28 03:31:49;;;;;;;48.40;33.88;;;;;;;;;;5033798;28;20412;-63
2022/06/28 03:34:15;;;;;;;48.67;32.85;;;;;;;;;;5033645;28;20378;-62
2022/06/28 03:36:41;;;;;;;45.35;32.70;;;;;;;;;;5033577;28;20465;-61
2022/06/28 03:39:07;;;;;;;44.78;33.15;;;;;;;;;;5032968;28;20076;-62
2022/06/28 03:41:33;;;;;;;44.58;31.30;;;;;;;;;;5033875;28;20021;-62
2022/06/28 03:43:59;;;;;;;46.30;31.70;;;;;;;;;;5033719;28;20743;-62
2022/06/28 03:46:25;;;;;;;43.05;30.83;;;;;;;;;;5033662;28;20037;-60
2022/06/28 03:48:51;;;;;;;46.35;32.15;;;;;;;;;;5032875;28;20525;-60
2022/06/28 03:51:17;;;;;;;41.65;30.65;;;;;;;;;;5016012;28;20022;-61
2022/06/28 03:53:43;;;;;;;43.00;30.67;;;;;;;;;;5033900;28;20028;-62
2022/06/28 03:56:10;;;;;;;43.58;31.73;;;;;;;;;;5033516;28;20025;-61
2022/06/28 03:58:37;;;;;;;41.63;30.25;;;;;;;;;;5032774;28;20037;-62
2022/06/28 04:01:03;;;;;;;50.13;31.75;;;;;;;;;;5033100;28;20409;-62
2022/06/28 04:03:29;;;;;;;39.47;29.80;;;;;;;;;;5032970;28;20035;-62
2022/06/28 04:05:55;;;;;;;44.78;29.77;;;;;;;;;;5032979;28;20021;-64
2022/06/28 04:08:21;;;;;;;40.88;30.05;;;;;;;;;;5032435;28;20108;-62
2022/06/28 04:10:48;;;;;;;45.47;32.95;;;;;;;;;;5032427;28;20064;-62
2022/06/28 04:13:14;;;;;;;44.33;30.55;;;;;;;;;;5033010;28;20025;-62
2022/06/28 04:15:40;;;;;;;43.83;31.40;;;;;;;;;;5032899;28;20056;-62
2022/06/28 04:18:07;;;;;;;39.40;29.45;;;;;;;;;;5014063;28;20049;-62
2022/06/28 04:20:33;;;;;;;38.92;28.83;;;;;;;;;;5032416;28;20082;-63
2022/06/28 04:23:00;;;;;;;35.13;27.60;;;;;;;;;;5032712;28;20067;-63
2022/06/28 04:25:26;;;;;;;39.33;28.80;;;;;;;;;;5032532;28;20029;-62
2022/06/28 04:27:56;;;;;;;37.83;27.58;;;;;;;;;;5032009;28;20105;-64
2022/06/28 04:30:22;;;;;;;38.03;25.90;;;;;;;;;;5032508;28;20040;-62
2022/06/28 04:32:48;;;;;;;35.65;25.48;;;;;;;;;;5032002;28;20119;-62
2022/06/28 04:35:14;;;;;;;35.08;26.67;;;;;;;;;;5032347;28;20025;-62
2022/06/28 04:37:40;;;;;;;35.50;26.05;;;;;;;;;;5031615;28;20140;-62
2022/06/28 04:40:06;;;;;;;32.92;24.63;;;;;;;;;;5014383;28;20030;-61
2022/06/28 04:42:32;;;;;;;31.67;24.15;;;;;;;;;;5032747;28;20017;-62
2022/06/28 04:44:58;;;;;;;33.28;23.52;;;;;;;;;;5032315;28;20100;-62
2022/06/28 04:47:24;;;;;;;34.65;24.77;;;;;;;;;;5031391;28;20036;-62
2022/06/28 04:49:50;;;;;;;30.85;21.73;;;;;;;;;;5032139;28;20433;-62
2022/06/28 04:52:16;;;;;;;30.23;23.60;;;;;;;;;;5032293;28;20041;-62
2022/06/28 04:54:42;;;;;;;39.03;23.70;;;;;;;;;;5031937;28;20029;-63
2022/06/28 04:57:08;;;;;;;29.85;22.25;;;;;;;;;;5013596;28;20091;-62
2022/06/28 04:59:34;;;;;;;30.27;22.15;;;;;;;;;;5031058;28;20025;-62
2022/06/28 05:02:00;;;;;;;27.42;20.55;;;;;;;;;;5031686;28;20522;-62
2022/06/28 05:04:26;;;;;;;31.48;21.02;;;;;;;;;;5031629;28;20030;-62
2022/06/28 05:06:52;;;;;;;25.63;19.65;;;;;;;;;;5031796;28;20064;-62
2022/06/28 05:09:18;;;;;;;31.48;21.00;;;;;;;;;;5030769;28;20028;-63
2022/06/28 05:11:44;;;;;;;31.10;22.05;;;;;;;;;;5031605;28;20021;-63
2022/06/28 05:14:10;;;;;;;30.85;23.17;;;;;;;;;;5031416;28;20501;-63
2022/06/28 05:16:36;;;;;;;29.60;21.00;;;;;;;;;;5013633;28;20120;-63
2022/06/28 05:19:02;;;;;;;27.92;20.15;;;;;;;;;;5030597;28;20025;-62
2022/06/28 05:21:28;;;;;;;29.10;19.05;;;;;;;;;;5031037;28;20022;-62
2022/06/28 05:23:54;;;;;;;26.02;18.58;;;;;;;;;;5013111;28;20021;-62
2022/06/28 05:26:20;;;;;;;25.60;17.80;;;;;;;;;;5031193;28;20500;-62
2022/06/28 05:28:46;;;;;;;25.60;16.88;;;;;;;;;;5030184;28;20436;-63
2022/06/28 05:31:12;;;;;;;26.20;17.90;;;;;;;;;;5031026;28;20037;-62
2022/06/28 05:33:38;;;;;;;26.23;17.27;;;;;;;;;;5031078;28;20033;-62
2022/06/28 05:36:04;;;;;;;25.10;16.77;;;;;;;;;;5031340;28;20532;-62
2022/06/28 05:38:31;;;;;;;24.45;15.10;;;;;;;;;;5030368;28;20038;-61
2022/06/28 05:40:57;;;;;;;23.48;15.20;;;;;;;;;;5030919;28;20666;-61
2022/06/28 05:43:23;;;;;;;26.48;15.80;;;;;;;;;;5030107;28;20106;-62
2022/06/28 05:45:49;;;;;;;28.08;15.88;;;;;;;;;;5030567;28;20037;-63
2022/06/28 05:48:15;;;;;;;27.63;15.77;;;;;;;;;;5029880;28;20069;-62
2022/06/28 05:50:41;;;;;;;26.00;16.60;;;;;;;;;;5030528;28;20081;-62
2022/06/28 05:53:07;;;;;;;22.77;14.95;;;;;;;;;;5030702;28;20069;-62
2022/06/28 05:55:33;;;;;;;26.27;14.65;;;;;;;;;;5030914;28;20048;-62
2022/06/28 05:57:59;;;;;;;25.83;15.82;;;;;;;;;;5029610;28;20136;-62
2022/06/28 06:00:25;;;;;;;23.17;14.75;;;;;;;;;;5030518;28;20091;-62
2022/06/28 06:02:51;;;;;;;25.20;14.73;;;;;;;;;;5030825;28;20412;-62
2022/06/28 06:05:17;;;;;;;24.25;14.48;;;;;;;;;;5030587;28;20026;-62
2022/06/28 06:07:43;;;;;;;26.17;15.57;;;;;;;;;;5029830;28;20035;-62
2022/06/28 06:10:09;;;;;;;26.15;14.40;;;;;;;;;;5030280;28;20037;-61
2022/06/28 06:12:35;;;;;;;24.42;14.82;;;;;;;;;;5030148;28;20474;-62
2022/06/28 06:15:01;;;;;;;22.48;14.48;;;;;;;;;;5030157;28;20057;-62
2022/06/28 06:17:27;;;;;;;22.70;14.35;;;;;;;;;;5029674;28;20029;-62
2022/06/28 06:19:53;;;;;;;22.13;14.40;;;;;;;;;;5030301;28;20032;-62
2022/06/28 06:22:19;;;;;;;22.17;14.30;;;;;;;;;;5030633;28;20398;-62
2022/06/28 06:24:45;;;;;;;23.67;13.48;;;;;;;;;;5030097;28;20428;-62
2022/06/28 06:27:13;;;;;;;22.15;13.38;;;;;;;;;;5029494;28;20025;-61
2022/06/28 06:29:39;;;;;;;27.00;14.88;;;;;;;;;;5012302;28;20574;-62
2022/06/28 06:32:06;;;;;;;24.33;13.32;;;;;;;;;;5030214;28;20029;-62
2022/06/28 06:34:32;;;;;;;21.85;12.95;;;;;;;;;;5030490;28;20048;-62
2022/06/28 06:36:58;;;;;;;24.05;12.63;;;;;;;;;;5030215;28;20493;-62
2022/06/28 06:39:23;;;;;;;22.52;13.13;;;;;;;;;;5029076;28;20033;-63
2022/06/28 06:41:49;;;;;;;23.20;12.85;;;;;;;;;;5030176;28;20022;-62
2022/06/28 06:44:16;;;;;;;28.88;14.32;;;;;;;;;;5030099;28;20076;-62
2022/06/28 06:46:42;;;;;;;22.27;12.52;;;;;;;;;;5030072;28;20034;-62
2022/06/28 06:49:09;;;;;;;22.17;13.85;;;;;;;;;;5029125;28;20034;-61
2022/06/28 06:51:35;;;;;;;26.67;14.00;;;;;;;;;;5029906;28;20401;-62
2022/06/28 06:54:01;;;;;;;23.55;14.25;;;;;;;;;;5030181;28;20025;-63
2022/06/28 06:56:27;;;;;;;25.42;13.82;;;;;;;;;;5033934;28;20025;-64
2022/06/28 06:58:54;;;;;;;24.15;13.63;;;;;;;;;;5026107;28;20022;-62
2022/06/28 07:01:20;;;;;;;23.55;13.60;;;;;;;;;;5033700;28;20040;-61
2022/06/28 07:03:46;;;;;;;23.58;13.80;;;;;;;;;;5033455;28;20093;-62
2022/06/28 07:06:13;;;;;;;22.08;13.50;;;;;;;;;;5030534;28;20160;-62
2022/06/28 07:08:39;;;;;;;24.58;14.43;;;;;;;;;;5013001;28;20022;-62
2022/06/28 07:11:05;;;;;;;23.83;13.02;;;;;;;;;;4996093;28;20026;-61
2022/06/28 07:13:31;;;;;;;24.73;13.20;;;;;;;;;;5013936;28;20032;-61
2022/06/28 07:15:57;;;;;;;21.17;12.43;;;;;;;;;;5026605;28;20033;-61
2022/06/28 07:18:23;;;;;;;23.95;13.10;;;;;;;;;;5033054;28;20071;-61
2022/06/28 07:20:54;;;;;;;23.35;12.82;;;;;;;;;;5033699;28;20134;-61
2022/06/28 07:23:20;;;;;;;22.50;12.75;;;;;;;;;;5033674;28;20152;-61
2022/06/28 07:25:46;;;;;;;24.23;12.77;;;;;;;;;;5033552;28;20022;-61
2022/06/28 07:28:12;;;;;;;23.95;12.95;;;;;;;;;;5032678;28;20528;-60
2022/06/28 07:30:38;;;;;;;21.63;12.65;;;;;;;;;;5036521;23;20056;-61
2022/06/28 07:33:04;;;;;;;23.25;13.00;;;;;;;;;;5028357;28;20032;-62
2022/06/28 07:35:31;;;;;;;22.00;12.70;;;;;;;;;;5034733;28;20017;-62
2022/06/28 07:37:57;;;;;;;20.35;13.23;;;;;;;;;;5034119;28;20029;-62
2022/06/28 07:40:23;;;;;;;22.67;13.23;;;;;;;;;;5006419;28;20035;-62
2022/06/28 07:42:49;;;;;;;22.70;12.07;;;;;;;;;;4995204;28;20031;-63
2022/06/28 07:45:15;;;;;;;25.00;12.98;;;;;;;;;;4977581;28;20459;-62
2022/06/28 07:47:41;;;;;;;23.33;13.38;;;;;;;;;;4994281;28;20121;-57
2022/06/28 07:52:53;;;;;;;21.52;13.25;;;;;;;;;;4995186;28;20088;-63
2022/06/28 07:55:19;;;;;;;22.02;12.98;;;;;;;;;;4977400;28;20466;-62
2022/06/28 07:57:45;;;;;;;19.23;12.38;;;;;;;;;;4994118;28;20030;-61
2022/06/28 08:00:11;;;;;;;22.33;13.60;;;;;;;;;;5012800;28;20037;-61
2022/06/28 08:02:37;;;;;;;23.73;13.45;;;;;;;;;;5014174;28;20026;-63
2022/06/28 08:05:03;;;;;;;25.42;13.80;;;;;;;;;;5014719;28;20021;-62
2022/06/28 08:07:29;;;;;;;21.58;13.27;;;;;;;;;;4995191;28;20030;-61
2022/06/28 08:09:55;;;;;;;20.27;12.93;;;;;;;;;;5014200;28;20497;-56
2022/06/28 08:12:21;;;;;;;22.08;13.40;;;;;;;;;;5014478;28;20390;-55
2022/06/28 08:14:47;;;;;;;21.52;14.02;;;;;;;;;;4997132;28;20029;-57
2022/06/28 08:17:13;;;;;;;20.83;12.50;;;;;;;;;;5013522;28;20032;-55
2022/06/28 08:19:40;;;;;;;17.98;11.50;;;;;;;;;;4994329;28;20030;-58
2022/06/28 08:22:06;;;;;;;22.13;12.10;;;;;;;;;;4994518;28;20015;-58
2022/06/28 08:24:32;;;;;;;20.95;12.32;;;;;;;;;;4994495;28;20446;-56
2022/06/28 08:26:58;;;;;;;19.67;12.23;;;;;;;;;;4994289;28;20023;-55
2022/06/28 08:29:24;;;;;;;21.52;12.63;;;;;;;;;;4993473;28;20080;-58
2022/06/28 08:31:50;;;;;;;20.08;11.75;;;;;;;;;;4994214;28;20030;-58
2022/06/28 08:34:16;;;;;;;20.05;12.18;;;;;;;;;;5012060;28;20021;-58
2022/06/28 08:36:42;;;;;;;19.95;11.25;;;;;;;;;;5014092;28;20022;-59
2022/06/28 08:39:08;;;;;;;19.40;10.88;;;;;;;;;;5012997;28;20478;-59
2022/06/28 08:41:35;;;;;;;18.27;11.05;;;;;;;;;;5013728;28;20073;-54
2022/06/28 08:44:01;;;;;;;18.90;12.07;;;;;;;;;;5013579;28;20045;-54
2022/06/28 08:46:27;;;;;;;20.35;10.57;;;;;;;;;;5013520;28;20030;-56
2022/06/28 08:48:56;;;;;;;18.42;10.73;;;;;;;;;;5012426;28;20549;-53
2022/06/28 08:51:30;;;;;;;18.23;11.30;;;;;;;;;;5013406;28;20026;-57
2022/06/28 08:53:55;;;;;;;19.58;11.68;;;;;;;;;;5013350;28;20041;-57
2022/06/28 08:56:22;;;;;;;17.67;10.40;;;;;;;;;;5013359;28;20498;-57
2022/06/28 08:58:48;;;;;;;19.10;10.52;;;;;;;;;;4994793;28;20072;-58
2022/06/28 09:01:14;;;;;;;18.38;11.38;;;;;;;;;;5013167;28;20033;-55
2022/06/28 09:03:40;;;;;;;16.63;11.40;;;;;;;;;;5013273;28;20048;-55
2022/06/28 09:06:06;;;;;;;19.13;10.65;;;;;;;;;;5013069;28;20555;-57
2022/06/28 09:08:33;;;;;;;18.92;11.00;;;;;;;;;;5012389;28;20068;-57
2022/06/28 09:10:59;;;;;;;18.58;9.88;;;;;;;;;;5011176;28;20105;-58
2022/06/28 09:13:25;;;;;;;18.60;11.05;;;;;;;;;;4971049;28;20026;-57
2022/06/28 09:15:58;;;;;;;17.42;10.07;;;;;;;;;;4973520;28;20031;-56
2022/06/28 09:18:43;;;;;;;18.70;11.18;;;;;;;;;;4979081;28;20053;-53
2022/06/28 09:21:13;;;;;;;17.17;10.38;;;;;;;;;;4992902;28;20038;-57
2022/06/28 09:23:41;;;;;;;18.25;10.82;;;;;;;;;;4993169;28;20372;-58
2022/06/28 09:26:08;;;;;;;18.23;10.85;;;;;;;;;;4993272;28;20023;-55
2022/06/28 09:28:35;;;;;;;15.40;9.98;;;;;;;;;;4995082;28;20017;-56
2022/06/28 09:31:16;;;;;;;19.65;10.95;;;;;;;;;;4992780;28;20466;-55
2022/06/28 09:33:43;;;;;;;21.20;10.70;;;;;;;;;;4993315;28;20022;-55
2022/06/28 09:36:13;;;;;;;16.58;10.23;;;;;;;;;;5001328;28;20034;-57
2022/06/28 09:38:39;;;;;;;19.02;10.57;;;;;;;;;;5001289;28;20509;-58
2022/06/28 09:41:05;;;;;;;18.60;10.18;;;;;;;;;;4994746;28;20033;-63
2022/06/28 09:43:32;;;;;;;17.70;10.25;;;;;;;;;;5012152;28;20022;-62
2022/06/28 09:46:02;;;;;;;18.80;10.57;;;;;;;;;;5012318;28;20084;-60
2022/06/28 09:48:31;;;;;;;16.83;10.45;;;;;;;;;;5011656;28;20097;-62
2022/06/28 09:50:58;;;;;;;17.70;9.70;;;;;;;;;;5012372;28;20033;-61
2022/06/28 09:53:25;;;;;;;17.30;10.15;;;;;;;;;;4994737;28;20029;-60
2022/06/28 09:55:52;;;;;;;16.90;10.02;;;;;;;;;;5011631;28;20026;-60
2022/06/28 09:58:19;;;;;;;19.08;10.30;;;;;;;;;;4996920;28;20038;-61
2022/06/28 10:00:45;;;;;;;18.70;10.55;;;;;;;;;;4992903;28;20029;-61
2022/06/28 10:03:11;;;;;;;15.20;9.70;;;;;;;;;;5008696;28;20033;-60
2022/06/28 10:05:38;;;;;;;19.77;10.80;;;;;;;;;;5011718;28;20201;-61
2022/06/28 10:08:04;;;;;;;16.33;9.90;;;;;;;;;;4993302;28;20021;-63
2022/06/28 10:10:31;;;;;;;19.90;10.02;;;;;;;;;;5011587;28;20713;-62
2022/06/28 10:15:45;;;;;;;18.73;9.93;;;;;;;;;;5011495;28;20099;-62
2022/06/28 10:18:18;;;;;;;17.77;9.85;;;;;;;;;;5009757;28;20470;-61
2022/06/28 10:20:44;;;;;;;23.08;9.70;;;;;;;;;;4994071;28;20490;-62
2022/06/28 10:23:24;;;;;;;15.23;9.77;;;;;;;;;;5012188;28;20030;-62
2022/06/28 10:26:08;;;;;;;14.50;8.88;;;;;;;;;;5011832;28;20026;-62
2022/06/28 10:28:34;;;;;;;21.98;9.48;;;;;;;;;;5010982;28;20121;-62
2022/06/28 10:31:19;;;;;;;14.57;8.95;;;;;;;;;;5011260;28;20077;-61
2022/06/28 10:33:45;;;;;;;16.27;9.30;;;;;;;;;;5008029;28;20036;-61
2022/06/28 10:36:15;;;;;;;16.38;10.20;;;;;;;;;;4997019;28;20022;-62
2022/06/28 10:39:00;;;;;;;15.52;9.57;;;;;;;;;;4998676;28;20498;-64
2022/06/28 10:41:38;;;;;;;16.35;9.63;;;;;;;;;;5001384;28;20113;-60
2022/06/28 10:44:23;;;;;;;14.57;9.75;;;;;;;;;;5001291;28;20098;-61
2022/06/28 10:46:51;;;;;;;18.35;11.07;;;;;;;;;;4983739;28;20060;-60
2022/06/28 10:49:17;;;;;;;16.58;10.13;;;;;;;;;;4999759;28;20023;-64
2022/06/28 10:52:02;;;;;;;16.67;9.73;;;;;;;;;;5002309;28;20077;-61
2022/06/28 10:54:28;;;;;;;16.30;9.55;;;;;;;;;;5002417;28;20029;-61
2022/06/28 10:56:56;;;;;;;18.75;9.93;;;;;;;;;;5000624;28;20478;-61
2022/06/28 10:59:33;;;;;;;16.45;9.95;;;;;;;;;;4983041;28;20582;-62
2022/06/28 11:01:59;;;;;;;16.15;9.50;;;;;;;;;;5001815;28;20037;-62
2022/06/28 11:04:27;;;;;;;16.73;9.77;;;;;;;;;;5011524;28;20054;-61
2022/06/28 11:07:01;;;;;;;16.23;9.60;;;;;;;;;;5011480;28;20438;-61
2022/06/28 11:09:27;;;;;;;17.05;9.70;;;;;;;;;;5010112;28;20347;-62
2022/06/28 11:12:09;;;;;;;15.75;9.40;;;;;;;;;;5011673;28;20101;-60
2022/06/28 11:14:44;;;;;;;18.45;10.15;;;;;;;;;;4994148;28;20131;-60
2022/06/28 11:17:29;;;;;;;16.27;10.18;;;;;;;;;;5011052;28;20021;-60
2022/06/28 11:20:00;;;;;;;16.98;10.60;;;;;;;;;;5011693;28;20026;-60
2022/06/28 11:22:26;;;;;;;14.82;9.70;;;;;;;;;;5011211;28;20018;-60
2022/06/28 11:24:54;;;;;;;17.05;10.32;;;;;;;;;;5011591;28;20453;-60
2022/06/28 11:27:20;;;;;;;16.75;10.32;;;;;;;;;;5011252;28;20066;-61
2022/06/28 11:29:47;;;;;;;17.05;10.18;;;;;;;;;;5011423;28;20084;-59
2022/06/28 11:32:17;;;;;;;15.73;10.38;;;;;;;;;;5014723;28;20509;-56
2022/06/28 11:34:43;;;;;;;18.67;10.13;;;;;;;;;;5013942;28;20037;-59
2022/06/28 11:37:09;;;;;;;16.95;10.63;;;;;;;;;;5013788;28;20029;-57
2022/06/28 11:39:35;;;;;;;16.27;10.93;;;;;;;;;;5014725;28;20108;-57
2022/06/28 11:42:01;;;;;;;18.63;10.70;;;;;;;;;;5016760;28;20022;-59
2022/06/28 11:44:27;;;;;;;17.55;11.63;;;;;;;;;;5001065;28;20018;-60
2022/06/28 11:46:54;;;;;;;19.15;11.10;;;;;;;;;;5001064;28;20018;-60
2022/06/28 11:49:29;;;;;;;16.92;10.65;;;;;;;;;;5017971;28;20029;-58
2022/06/28 11:51:55;;;;;;;16.00;10.70;;;;;;;;;;5000816;28;20080;-60
2022/06/28 11:54:22;;;;;;;15.82;10.38;;;;;;;;;;5019708;28;20098;-59
2022/06/28 11:56:48;;;;;;;16.35;10.90;;;;;;;;;;5020427;28;20026;-58
2022/06/28 11:59:15;;;;;;;16.77;11.30;;;;;;;;;;5019688;28;20029;-57
2022/06/28 12:01:42;;;;;;;18.00;11.05;;;;;;;;;;5020448;28;20092;-61
2022/06/28 12:04:09;;;;;;;16.27;11.27;;;;;;;;;;5021059;28;20370;-57
2022/06/28 12:06:36;;;;;;;15.43;10.85;;;;;;;;;;5021976;28;20014;-59
2022/06/28 12:09:03;;;;;;;18.25;11.43;;;;;;;;;;5019462;28;20030;-57
2022/06/28 12:11:29;;;;;;;16.55;10.60;;;;;;;;;;5020537;28;20030;-58
2022/06/28 12:13:59;;;;;;;16.70;11.52;;;;;;;;;;5017237;28;20029;-58
2022/06/28 12:16:28;;;;;;;16.80;11.27;;;;;;;;;;5015320;28;20517;-59
2022/06/28 12:18:55;;;;;;;18.73;11.30;;;;;;;;;;5013476;28;20022;-57
2022/06/28 12:21:21;;;;;;;17.17;11.98;;;;;;;;;;5006966;28;20108;-56
2022/06/28 12:23:51;;;;;;;18.30;11.38;;;;;;;;;;5004050;28;20025;-58
2022/06/28 12:26:17;;;;;;;18.73;11.60;;;;;;;;;;5002548;28;20038;-54
2022/06/28 12:28:44;;;;;;;17.48;12.25;;;;;;;;;;5002922;28;20018;-58
2022/06/28 12:31:10;;;;;;;17.60;12.65;;;;;;;;;;5003457;28;20520;-59
2022/06/28 12:33:36;;;;;;;18.05;11.60;;;;;;;;;;5002531;28;20114;-58
2022/06/28 12:36:02;;;;;;;16.02;11.60;;;;;;;;;;5004214;28;20041;-58
2022/06/28 12:38:28;;;;;;;16.13;11.23;;;;;;;;;;5002896;28;20049;-59
2022/06/28 12:40:54;;;;;;;17.60;12.18;;;;;;;;;;5001932;28;20192;-60
2022/06/28 12:43:20;;;;;;;17.25;11.95;;;;;;;;;;5004049;28;20024;-58
2022/06/28 12:45:46;;;;;;;16.10;11.65;;;;;;;;;;4984785;28;20487;-57
2022/06/28 12:48:12;;;;;;;16.35;11.73;;;;;;;;;;5001572;28;20121;-58
2022/06/28 12:50:38;;;;;;;15.95;11.98;;;;;;;;;;4998903;28;20050;-60
2022/06/28 12:53:04;;;;;;;17.48;12.00;;;;;;;;;;4993592;28;20030;-59
2022/06/28 12:55:30;;;;;;;17.60;12.23;;;;;;;;;;4993918;28;20034;-63
2022/06/28 12:57:56;;;;;;;18.98;12.50;;;;;;;;;;4992863;28;20065;-61
2022/06/28 13:00:22;;;;;;;17.48;11.70;;;;;;;;;;5014550;28;20436;-59
2022/06/28 13:02:49;;;;;;;16.88;12.20;;;;;;;;;;4652529;28;10000236;-60
2022/06/28 13:05:15;;;;;;;16.95;12.23;;;;;;;;;;4990223;28;20022;-60
2022/06/28 13:07:41;;;;;;;16.25;11.98;;;;;;;;;;4989597;28;20069;-60
2022/06/28 13:10:11;;;;;;;18.00;11.98;;;;;;;;;;4990118;28;20033;-57
2022/06/28 13:12:37;;;;;;;17.60;12.60;;;;;;;;;;4982917;28;20032;-60
2022/06/28 13:15:04;;;;;;;17.55;11.95;;;;;;;;;;4980408;28;20018;-60
2022/06/28 13:17:30;;;;;;;16.13;11.68;;;;;;;;;;4998285;28;20033;-53
2022/06/28 13:19:56;;;;;;;17.45;12.73;;;;;;;;;;4989886;28;20040;-60
2022/06/28 13:22:22;;;;;;;16.73;12.00;;;;;;;;;;4989958;28;20051;-59
2022/06/28 13:24:48;;;;;;;16.33;11.90;;;;;;;;;;4990257;28;20022;-60
2022/06/28 13:27:14;;;;;;;16.10;12.10;;;;;;;;;;4989055;28;20368;-60
2022/06/28 13:32:14;;;;;;;17.00;12.48;;;;;;;;;;5007529;28;20054;-59
2022/06/28 13:34:39;;;;;;;16.65;11.77;;;;;;;;;;5009224;28;20060;-55
2022/06/28 13:37:06;;;;;;;15.55;11.60;;;;;;;;;;5005037;28;20021;-58
2022/06/28 13:39:32;;;;;;;18.20;12.20;;;;;;;;;;5008831;28;20029;-58
2022/06/28 13:41:58;;;;;;;15.63;11.50;;;;;;;;;;5009498;28;20439;-58
2022/06/28 13:44:25;;;;;;;16.38;12.05;;;;;;;;;;5011358;28;20022;-56
2022/06/28 13:46:53;;;;;;;15.88;11.70;;;;;;;;;;5011436;28;20075;-57
2022/06/28 13:49:19;;;;;;;16.73;11.07;;;;;;;;;;5012000;28;20034;-56
2022/06/28 13:51:45;;;;;;;17.15;11.73;;;;;;;;;;4994982;28;20024;-59
2022/06/28 13:54:12;;;;;;;16.58;11.40;;;;;;;;;;5012258;28;20018;-59
2022/06/28 13:56:38;;;;;;;16.42;11.70;;;;;;;;;;4994956;28;20022;-56
2022/06/28 13:59:04;;;;;;;16.38;11.63;;;;;;;;;;5011206;28;20462;-57
2022/06/28 14:01:30;;;;;;;16.90;12.02;;;;;;;;;;5012119;28;20398;-59
2022/06/28 14:03:56;;;;;;;18.38;11.68;;;;;;;;;;4645143;28;10000582;-59
2022/06/28 14:06:22;;;;;;;16.52;11.80;;;;;;;;;;4989419;28;20030;-59
2022/06/28 14:08:48;;;;;;;17.25;11.93;;;;;;;;;;4988382;28;20026;-59
2022/06/28 14:11:14;;;;;;;16.13;11.38;;;;;;;;;;5000788;28;20096;-59
2022/06/28 14:13:41;;;;;;;16.65;11.27;;;;;;;;;;5028517;28;20033;-60
2022/06/28 14:16:07;;;;;;;16.27;11.35;;;;;;;;;;5028190;28;20018;-55
2022/06/28 14:18:33;;;;;;;17.42;11.50;;;;;;;;;;5028222;28;20121;-58
2022/06/28 14:20:59;;;;;;;16.90;11.50;;;;;;;;;;5028774;28;20045;-59
2022/06/28 14:23:25;;;;;;;16.17;11.68;;;;;;;;;;5029563;28;20029;-58
2022/06/28 14:25:51;;;;;;;15.60;11.57;;;;;;;;;;5015978;28;20014;-60
2022/06/28 14:28:17;;;;;;;16.40;12.27;;;;;;;;;;5007434;28;20026;-58
2022/06/28 14:30:45;;;;;;;17.48;12.00;;;;;;;;;;5007965;28;20160;-58
2022/06/28 14:33:12;;;;;;;18.27;12.15;;;;;;;;;;4996261;28;20405;-60